sensor_id;sensor_type;location;lat;lon;timestamp;P1;durP1;ratioP1;P2;durP2;ratioP2
56373;SDS011;58212;47.034;7.376;2023-06-22T00:01:12;8.30;;;7.18;;
56373;SDS011;58212;47.034;7.376;2023-06-22T00:03:40;9.80;;;7.03;;
56373;SDS011;58212;47.034;7.376;2023-06-22T00:06:06;8.48;;;7.00;;
56373;SDS011;58212;47.034;7.376;2023-06-22T00:08:34;9.52;;;6.53;;
56373;SDS011;58212;47.034;7.376;2023-06-22T00:11:00;10.32;;;7.25;;
56373;SDS011;58212;47.034;7.376;2023-06-22T00:13:28;12.38;;;7.15;;
56373;SDS011;58212;47.034;7.376;2023-06-22T00:15:56;9.35;;;7.60;;
56373;SDS011;58212;47.034;7.376;2023-06-22T00:18:23;10.68;;;7.40;;
56373;SDS011;58212;47.034;7.376;2023-06-22T00:20:53;10.70;;;7.75;;
56373;SDS011;58212;47.034;7.376;2023-06-22T00:23:23;8.73;;;7.40;;
56373;SDS011;58212;47.034;7.376;2023-06-22T00:25:51;10.23;;;7.15;;
56373;SDS011;58212;47.034;7.376;2023-06-22T00:28:21;7.68;;;6.75;;
56373;SDS011;58212;47.034;7.376;2023-06-22T00:30:48;12.75;;;6.70;;
56373;SDS011;58212;47.034;7.376;2023-06-22T00:33:16;8.18;;;6.82;;
56373;SDS011;58212;47.034;7.376;2023-06-22T00:35:43;9.40;;;6.55;;
56373;SDS011;58212;47.034;7.376;2023-06-22T00:38:10;9.40;;;7.00;;
56373;SDS011;58212;47.034;7.376;2023-06-22T00:40:36;7.00;;;6.30;;
56373;SDS011;58212;47.034;7.376;2023-06-22T00:43:03;9.18;;;7.00;;
56373;SDS011;58212;47.034;7.376;2023-06-22T00:45:31;9.70;;;7.18;;
56373;SDS011;58212;47.034;7.376;2023-06-22T00:47:58;8.77;;;6.10;;
56373;SDS011;58212;47.034;7.376;2023-06-22T00:50:27;8.63;;;6.28;;
56373;SDS011;58212;47.034;7.376;2023-06-22T00:52:59;8.85;;;5.90;;
56373;SDS011;58212;47.034;7.376;2023-06-22T00:55:31;9.88;;;6.25;;
56373;SDS011;58212;47.034;7.376;2023-06-22T00:58:01;7.53;;;6.10;;
56373;SDS011;58212;47.034;7.376;2023-06-22T01:00:27;8.68;;;6.30;;
56373;SDS011;58212;47.034;7.376;2023-06-22T01:02:55;9.82;;;6.30;;
56373;SDS011;58212;47.034;7.376;2023-06-22T01:05:23;7.32;;;6.55;;
56373;SDS011;58212;47.034;7.376;2023-06-22T01:10:43;7.50;;;6.35;;
56373;SDS011;58212;47.034;7.376;2023-06-22T01:13:22;8.80;;;6.72;;
56373;SDS011;58212;47.034;7.376;2023-06-22T01:16:00;8.50;;;6.78;;
56373;SDS011;58212;47.034;7.376;2023-06-22T01:18:31;9.77;;;6.60;;
56373;SDS011;58212;47.034;7.376;2023-06-22T01:21:02;8.65;;;6.80;;
56373;SDS011;58212;47.034;7.376;2023-06-22T01:23:39;8.48;;;7.03;;
56373;SDS011;58212;47.034;7.376;2023-06-22T01:26:17;9.48;;;6.97;;
56373;SDS011;58212;47.034;7.376;2023-06-22T01:28:49;9.73;;;6.63;;
56373;SDS011;58212;47.034;7.376;2023-06-22T01:31:17;7.95;;;6.70;;
56373;SDS011;58212;47.034;7.376;2023-06-22T01:33:47;9.23;;;6.82;;
56373;SDS011;58212;47.034;7.376;2023-06-22T01:36:17;9.15;;;6.75;;
56373;SDS011;58212;47.034;7.376;2023-06-22T01:38:45;7.40;;;6.53;;
56373;SDS011;58212;47.034;7.376;2023-06-22T01:41:13;8.60;;;6.97;;
56373;SDS011;58212;47.034;7.376;2023-06-22T01:43:42;10.13;;;6.75;;
56373;SDS011;58212;47.034;7.376;2023-06-22T01:46:11;11.18;;;7.90;;
56373;SDS011;58212;47.034;7.376;2023-06-22T01:48:38;11.15;;;7.72;;
56373;SDS011;58212;47.034;7.376;2023-06-22T01:51:07;11.05;;;7.13;;
56373;SDS011;58212;47.034;7.376;2023-06-22T01:53:34;12.27;;;7.68;;
56373;SDS011;58212;47.034;7.376;2023-06-22T01:56:01;10.35;;;7.72;;
56373;SDS011;58212;47.034;7.376;2023-06-22T01:58:29;9.05;;;7.40;;
56373;SDS011;58212;47.034;7.376;2023-06-22T02:00:56;8.90;;;7.30;;
56373;SDS011;58212;47.034;7.376;2023-06-22T02:03:31;9.40;;;6.88;;
56373;SDS011;58212;47.034;7.376;2023-06-22T02:06:03;8.07;;;6.95;;
56373;SDS011;58212;47.034;7.376;2023-06-22T02:08:35;8.93;;;7.13;;
56373;SDS011;58212;47.034;7.376;2023-06-22T02:11:07;8.57;;;7.20;;
56373;SDS011;58212;47.034;7.376;2023-06-22T02:13:36;9.88;;;7.35;;
56373;SDS011;58212;47.034;7.376;2023-06-22T02:16:08;10.20;;;7.60;;
56373;SDS011;58212;47.034;7.376;2023-06-22T02:18:37;12.27;;;7.88;;
56373;SDS011;58212;47.034;7.376;2023-06-22T02:21:07;9.20;;;8.23;;
56373;SDS011;58212;47.034;7.376;2023-06-22T02:23:33;9.88;;;8.35;;
56373;SDS011;58212;47.034;7.376;2023-06-22T02:26:01;7.82;;;7.00;;
56373;SDS011;58212;47.034;7.376;2023-06-22T02:28:29;10.48;;;7.63;;
56373;SDS011;58212;47.034;7.376;2023-06-22T02:30:56;11.02;;;8.95;;
56373;SDS011;58212;47.034;7.376;2023-06-22T02:33:22;10.07;;;6.97;;
56373;SDS011;58212;47.034;7.376;2023-06-22T02:35:50;10.55;;;7.28;;
56373;SDS011;58212;47.034;7.376;2023-06-22T02:38:21;7.88;;;7.15;;
56373;SDS011;58212;47.034;7.376;2023-06-22T02:40:50;9.90;;;7.07;;
56373;SDS011;58212;47.034;7.376;2023-06-22T02:43:17;9.77;;;7.20;;
56373;SDS011;58212;47.034;7.376;2023-06-22T02:45:44;9.80;;;7.63;;
56373;SDS011;58212;47.034;7.376;2023-06-22T02:48:11;9.45;;;7.22;;
56373;SDS011;58212;47.034;7.376;2023-06-22T02:51:06;12.48;;;8.05;;
56373;SDS011;58212;47.034;7.376;2023-06-22T02:53:34;11.98;;;7.72;;
56373;SDS011;58212;47.034;7.376;2023-06-22T02:56:02;8.38;;;7.40;;
56373;SDS011;58212;47.034;7.376;2023-06-22T02:58:32;10.55;;;7.57;;
56373;SDS011;58212;47.034;7.376;2023-06-22T03:01:08;11.75;;;7.55;;
56373;SDS011;58212;47.034;7.376;2023-06-22T03:03:59;10.45;;;7.20;;
56373;SDS011;58212;47.034;7.376;2023-06-22T03:06:52;11.57;;;7.18;;
56373;SDS011;58212;47.034;7.376;2023-06-22T03:09:20;11.95;;;7.90;;
56373;SDS011;58212;47.034;7.376;2023-06-22T03:11:48;9.30;;;7.95;;
56373;SDS011;58212;47.034;7.376;2023-06-22T03:14:15;13.02;;;8.20;;
56373;SDS011;58212;47.034;7.376;2023-06-22T03:16:42;11.50;;;8.60;;
56373;SDS011;58212;47.034;7.376;2023-06-22T03:19:09;9.65;;;7.72;;
56373;SDS011;58212;47.034;7.376;2023-06-22T03:21:37;9.43;;;6.75;;
56373;SDS011;58212;47.034;7.376;2023-06-22T03:24:06;11.50;;;7.47;;
56373;SDS011;58212;47.034;7.376;2023-06-22T03:26:33;12.55;;;7.50;;
56373;SDS011;58212;47.034;7.376;2023-06-22T03:29:00;9.85;;;7.50;;
56373;SDS011;58212;47.034;7.376;2023-06-22T03:31:29;8.95;;;8.15;;
56373;SDS011;58212;47.034;7.376;2023-06-22T03:33:56;10.57;;;8.57;;
56373;SDS011;58212;47.034;7.376;2023-06-22T03:36:23;10.57;;;8.30;;
56373;SDS011;58212;47.034;7.376;2023-06-22T03:38:50;12.88;;;8.18;;
56373;SDS011;58212;47.034;7.376;2023-06-22T03:41:18;10.25;;;7.45;;
56373;SDS011;58212;47.034;7.376;2023-06-22T03:43:46;13.25;;;8.20;;
56373;SDS011;58212;47.034;7.376;2023-06-22T03:46:14;10.07;;;7.85;;
56373;SDS011;58212;47.034;7.376;2023-06-22T03:48:42;10.25;;;8.20;;
56373;SDS011;58212;47.034;7.376;2023-06-22T03:51:10;11.77;;;8.25;;
56373;SDS011;58212;47.034;7.376;2023-06-22T03:53:37;10.55;;;7.85;;
56373;SDS011;58212;47.034;7.376;2023-06-22T03:56:03;11.75;;;7.88;;
56373;SDS011;58212;47.034;7.376;2023-06-22T03:58:31;9.73;;;8.35;;
56373;SDS011;58212;47.034;7.376;2023-06-22T04:01:00;9.82;;;8.38;;
56373;SDS011;58212;47.034;7.376;2023-06-22T04:03:27;12.60;;;8.70;;
56373;SDS011;58212;47.034;7.376;2023-06-22T04:05:53;11.07;;;8.02;;
56373;SDS011;58212;47.034;7.376;2023-06-22T04:08:20;13.05;;;8.00;;
56373;SDS011;58212;47.034;7.376;2023-06-22T04:10:47;13.90;;;7.40;;
56373;SDS011;58212;47.034;7.376;2023-06-22T04:13:16;10.32;;;7.38;;
56373;SDS011;58212;47.034;7.376;2023-06-22T04:16:10;12.15;;;8.68;;
56373;SDS011;58212;47.034;7.376;2023-06-22T04:18:38;10.18;;;7.00;;
56373;SDS011;58212;47.034;7.376;2023-06-22T04:21:04;11.70;;;7.35;;
56373;SDS011;58212;47.034;7.376;2023-06-22T04:23:31;8.20;;;6.40;;
56373;SDS011;58212;47.034;7.376;2023-06-22T04:25:58;9.68;;;7.00;;
56373;SDS011;58212;47.034;7.376;2023-06-22T04:28:27;9.90;;;7.72;;
56373;SDS011;58212;47.034;7.376;2023-06-22T04:30:53;11.63;;;7.07;;
56373;SDS011;58212;47.034;7.376;2023-06-22T04:33:24;13.65;;;7.30;;
56373;SDS011;58212;47.034;7.376;2023-06-22T04:35:51;11.02;;;7.13;;
56373;SDS011;58212;47.034;7.376;2023-06-22T04:38:19;10.27;;;6.63;;
56373;SDS011;58212;47.034;7.376;2023-06-22T04:40:46;8.57;;;7.20;;
56373;SDS011;58212;47.034;7.376;2023-06-22T04:43:13;12.05;;;6.70;;
56373;SDS011;58212;47.034;7.376;2023-06-22T04:45:40;12.40;;;6.68;;
56373;SDS011;58212;47.034;7.376;2023-06-22T04:48:07;10.73;;;7.00;;
56373;SDS011;58212;47.034;7.376;2023-06-22T04:50:36;8.50;;;6.15;;
56373;SDS011;58212;47.034;7.376;2023-06-22T04:53:04;7.80;;;5.72;;
56373;SDS011;58212;47.034;7.376;2023-06-22T04:55:31;7.72;;;6.07;;
56373;SDS011;58212;47.034;7.376;2023-06-22T04:57:57;8.32;;;6.68;;
56373;SDS011;58212;47.034;7.376;2023-06-22T05:00:30;8.38;;;6.47;;
56373;SDS011;58212;47.034;7.376;2023-06-22T05:02:57;7.20;;;6.53;;
56373;SDS011;58212;47.034;7.376;2023-06-22T05:05:25;8.77;;;7.28;;
56373;SDS011;58212;47.034;7.376;2023-06-22T05:07:53;10.70;;;8.07;;
56373;SDS011;58212;47.034;7.376;2023-06-22T05:10:25;11.65;;;8.40;;
56373;SDS011;58212;47.034;7.376;2023-06-22T05:12:52;10.05;;;6.93;;
56373;SDS011;58212;47.034;7.376;2023-06-22T05:15:19;12.20;;;7.57;;
56373;SDS011;58212;47.034;7.376;2023-06-22T05:17:47;26.25;;;9.30;;
56373;SDS011;58212;47.034;7.376;2023-06-22T05:20:14;14.88;;;8.77;;
56373;SDS011;58212;47.034;7.376;2023-06-22T05:22:44;10.50;;;6.93;;
56373;SDS011;58212;47.034;7.376;2023-06-22T05:25:12;9.68;;;7.35;;
56373;SDS011;58212;47.034;7.376;2023-06-22T05:27:39;9.55;;;6.75;;
56373;SDS011;58212;47.034;7.376;2023-06-22T05:30:06;18.60;;;7.88;;
56373;SDS011;58212;47.034;7.376;2023-06-22T05:32:34;11.20;;;7.75;;
56373;SDS011;58212;47.034;7.376;2023-06-22T05:35:01;12.30;;;8.00;;
56373;SDS011;58212;47.034;7.376;2023-06-22T05:37:53;26.65;;;9.75;;
56373;SDS011;58212;47.034;7.376;2023-06-22T05:40:22;12.82;;;8.40;;
56373;SDS011;58212;47.034;7.376;2023-06-22T05:42:50;14.05;;;8.95;;
56373;SDS011;58212;47.034;7.376;2023-06-22T05:45:16;10.82;;;7.57;;
56373;SDS011;58212;47.034;7.376;2023-06-22T05:47:43;13.38;;;7.25;;
56373;SDS011;58212;47.034;7.376;2023-06-22T05:50:11;13.65;;;7.45;;
56373;SDS011;58212;47.034;7.376;2023-06-22T05:52:38;8.65;;;6.55;;
56373;SDS011;58212;47.034;7.376;2023-06-22T05:55:05;10.48;;;7.10;;
56373;SDS011;58212;47.034;7.376;2023-06-22T05:57:37;11.48;;;7.15;;
56373;SDS011;58212;47.034;7.376;2023-06-22T06:00:04;10.38;;;7.45;;
56373;SDS011;58212;47.034;7.376;2023-06-22T06:02:37;13.40;;;7.93;;
56373;SDS011;58212;47.034;7.376;2023-06-22T06:05:09;15.57;;;7.70;;
56373;SDS011;58212;47.034;7.376;2023-06-22T06:07:39;10.82;;;7.30;;
56373;SDS011;58212;47.034;7.376;2023-06-22T06:10:06;11.75;;;7.35;;
56373;SDS011;58212;47.034;7.376;2023-06-22T06:12:33;13.27;;;8.30;;
56373;SDS011;58212;47.034;7.376;2023-06-22T06:15:02;12.52;;;8.93;;
56373;SDS011;58212;47.034;7.376;2023-06-22T06:17:30;12.57;;;8.40;;
56373;SDS011;58212;47.034;7.376;2023-06-22T06:19:58;10.38;;;8.25;;
56373;SDS011;58212;47.034;7.376;2023-06-22T06:22:25;13.02;;;9.20;;
56373;SDS011;58212;47.034;7.376;2023-06-22T06:24:51;11.40;;;8.63;;
56373;SDS011;58212;47.034;7.376;2023-06-22T06:27:19;12.02;;;9.15;;
56373;SDS011;58212;47.034;7.376;2023-06-22T06:29:46;14.48;;;9.27;;
56373;SDS011;58212;47.034;7.376;2023-06-22T06:32:15;13.40;;;7.97;;
56373;SDS011;58212;47.034;7.376;2023-06-22T06:34:42;9.55;;;6.85;;
56373;SDS011;58212;47.034;7.376;2023-06-22T06:37:09;16.30;;;8.38;;
56373;SDS011;58212;47.034;7.376;2023-06-22T06:39:35;11.65;;;7.85;;
56373;SDS011;58212;47.034;7.376;2023-06-22T06:42:02;14.10;;;8.18;;
56373;SDS011;58212;47.034;7.376;2023-06-22T06:44:29;12.38;;;7.88;;
56373;SDS011;58212;47.034;7.376;2023-06-22T06:46:56;9.95;;;8.00;;
56373;SDS011;58212;47.034;7.376;2023-06-22T06:49:24;13.75;;;8.43;;
56373;SDS011;58212;47.034;7.376;2023-06-22T06:51:51;14.05;;;9.15;;
56373;SDS011;58212;47.034;7.376;2023-06-22T06:54:18;13.57;;;8.75;;
56373;SDS011;58212;47.034;7.376;2023-06-22T06:56:45;13.80;;;9.38;;
56373;SDS011;58212;47.034;7.376;2023-06-22T06:59:13;12.60;;;9.30;;
56373;SDS011;58212;47.034;7.376;2023-06-22T07:01:40;14.40;;;10.18;;
56373;SDS011;58212;47.034;7.376;2023-06-22T07:04:09;10.80;;;9.35;;
56373;SDS011;58212;47.034;7.376;2023-06-22T07:06:37;15.52;;;10.23;;
56373;SDS011;58212;47.034;7.376;2023-06-22T07:09:05;12.93;;;9.32;;
56373;SDS011;58212;47.034;7.376;2023-06-22T07:11:31;13.63;;;9.77;;
56373;SDS011;58212;47.034;7.376;2023-06-22T07:13:58;13.25;;;10.68;;
56373;SDS011;58212;47.034;7.376;2023-06-22T07:16:26;13.50;;;10.30;;
56373;SDS011;58212;47.034;7.376;2023-06-22T07:18:53;18.05;;;10.63;;
56373;SDS011;58212;47.034;7.376;2023-06-22T07:21:20;14.63;;;10.88;;
56373;SDS011;58212;47.034;7.376;2023-06-22T07:23:49;14.70;;;10.38;;
56373;SDS011;58212;47.034;7.376;2023-06-22T07:26:17;13.52;;;9.50;;
56373;SDS011;58212;47.034;7.376;2023-06-22T07:28:44;15.07;;;10.07;;
56373;SDS011;58212;47.034;7.376;2023-06-22T07:31:10;15.55;;;11.55;;
56373;SDS011;58212;47.034;7.376;2023-06-22T07:33:38;13.82;;;11.38;;
56373;SDS011;58212;47.034;7.376;2023-06-22T07:36:04;15.70;;;11.80;;
56373;SDS011;58212;47.034;7.376;2023-06-22T07:38:33;14.30;;;12.02;;
56373;SDS011;58212;47.034;7.376;2023-06-22T07:41:02;18.58;;;13.23;;
56373;SDS011;58212;47.034;7.376;2023-06-22T07:43:30;18.63;;;11.32;;
56373;SDS011;58212;47.034;7.376;2023-06-22T07:45:59;15.73;;;12.07;;
56373;SDS011;58212;47.034;7.376;2023-06-22T07:48:25;14.15;;;11.45;;
56373;SDS011;58212;47.034;7.376;2023-06-22T07:50:53;16.95;;;10.02;;
56373;SDS011;58212;47.034;7.376;2023-06-22T07:53:20;17.05;;;10.77;;
56373;SDS011;58212;47.034;7.376;2023-06-22T07:55:49;16.55;;;11.70;;
56373;SDS011;58212;47.034;7.376;2023-06-22T07:58:17;16.02;;;11.20;;
56373;SDS011;58212;47.034;7.376;2023-06-22T08:00:47;14.95;;;10.38;;
56373;SDS011;58212;47.034;7.376;2023-06-22T08:03:14;15.98;;;11.02;;
56373;SDS011;58212;47.034;7.376;2023-06-22T08:05:41;14.50;;;9.80;;
56373;SDS011;58212;47.034;7.376;2023-06-22T08:08:08;16.88;;;10.15;;
56373;SDS011;58212;47.034;7.376;2023-06-22T08:10:59;12.98;;;9.55;;
56373;SDS011;58212;47.034;7.376;2023-06-22T08:13:28;12.93;;;10.73;;
56373;SDS011;58212;47.034;7.376;2023-06-22T08:15:55;16.38;;;10.57;;
56373;SDS011;58212;47.034;7.376;2023-06-22T08:18:22;13.13;;;9.52;;
56373;SDS011;58212;47.034;7.376;2023-06-22T08:20:48;13.32;;;9.75;;
56373;SDS011;58212;47.034;7.376;2023-06-22T08:23:15;17.88;;;10.30;;
56373;SDS011;58212;47.034;7.376;2023-06-22T08:25:43;11.77;;;9.52;;
56373;SDS011;58212;47.034;7.376;2023-06-22T08:28:12;14.10;;;9.80;;
56373;SDS011;58212;47.034;7.376;2023-06-22T08:30:41;10.88;;;8.60;;
56373;SDS011;58212;47.034;7.376;2023-06-22T08:33:07;13.48;;;9.90;;
56373;SDS011;58212;47.034;7.376;2023-06-22T08:35:35;12.90;;;9.20;;
56373;SDS011;58212;47.034;7.376;2023-06-22T08:38:01;14.07;;;9.30;;
56373;SDS011;58212;47.034;7.376;2023-06-22T08:40:28;12.00;;;8.95;;
56373;SDS011;58212;47.034;7.376;2023-06-22T08:42:56;15.65;;;10.10;;
56373;SDS011;58212;47.034;7.376;2023-06-22T08:45:23;11.02;;;9.82;;
56373;SDS011;58212;47.034;7.376;2023-06-22T08:47:52;13.43;;;9.75;;
56373;SDS011;58212;47.034;7.376;2023-06-22T08:50:19;11.80;;;8.63;;
56373;SDS011;58212;47.034;7.376;2023-06-22T08:52:45;9.07;;;7.80;;
56373;SDS011;58212;47.034;7.376;2023-06-22T08:55:38;14.20;;;9.23;;
56373;SDS011;58212;47.034;7.376;2023-06-22T08:58:06;13.40;;;9.32;;
56373;SDS011;58212;47.034;7.376;2023-06-22T09:00:33;15.80;;;9.57;;
56373;SDS011;58212;47.034;7.376;2023-06-22T09:03:02;14.00;;;8.95;;
56373;SDS011;58212;47.034;7.376;2023-06-22T09:05:29;14.50;;;9.80;;
56373;SDS011;58212;47.034;7.376;2023-06-22T09:07:57;14.40;;;10.02;;
56373;SDS011;58212;47.034;7.376;2023-06-22T09:10:24;17.10;;;9.35;;
56373;SDS011;58212;47.034;7.376;2023-06-22T09:12:51;15.00;;;9.25;;
56373;SDS011;58212;47.034;7.376;2023-06-22T09:15:18;14.98;;;9.55;;
56373;SDS011;58212;47.034;7.376;2023-06-22T09:17:45;13.48;;;10.32;;
56373;SDS011;58212;47.034;7.376;2023-06-22T09:20:14;17.77;;;9.95;;
56373;SDS011;58212;47.034;7.376;2023-06-22T09:22:41;14.15;;;9.43;;
56373;SDS011;58212;47.034;7.376;2023-06-22T09:25:08;17.75;;;8.00;;
56373;SDS011;58212;47.034;7.376;2023-06-22T09:27:35;14.02;;;9.38;;
56373;SDS011;58212;47.034;7.376;2023-06-22T09:30:02;15.02;;;9.30;;
56373;SDS011;58212;47.034;7.376;2023-06-22T09:32:30;12.32;;;9.40;;
56373;SDS011;58212;47.034;7.376;2023-06-22T09:34:57;15.73;;;10.15;;
56373;SDS011;58212;47.034;7.376;2023-06-22T09:37:26;16.33;;;9.23;;
56373;SDS011;58212;47.034;7.376;2023-06-22T09:39:53;14.00;;;9.25;;
56373;SDS011;58212;47.034;7.376;2023-06-22T09:42:20;18.20;;;9.82;;
56373;SDS011;58212;47.034;7.376;2023-06-22T09:44:46;17.20;;;9.80;;
56373;SDS011;58212;47.034;7.376;2023-06-22T09:47:16;13.82;;;8.50;;
56373;SDS011;58212;47.034;7.376;2023-06-22T09:49:43;13.73;;;7.82;;
56373;SDS011;58212;47.034;7.376;2023-06-22T09:52:11;18.63;;;8.40;;
56373;SDS011;58212;47.034;7.376;2023-06-22T09:54:41;12.35;;;7.57;;
56373;SDS011;58212;47.034;7.376;2023-06-22T09:57:07;14.30;;;8.77;;
56373;SDS011;58212;47.034;7.376;2023-06-22T09:59:34;10.30;;;8.40;;
56373;SDS011;58212;47.034;7.376;2023-06-22T10:02:01;13.23;;;7.85;;
56373;SDS011;58212;47.034;7.376;2023-06-22T10:04:29;13.63;;;7.50;;
56373;SDS011;58212;47.034;7.376;2023-06-22T10:06:56;10.43;;;7.65;;
56373;SDS011;58212;47.034;7.376;2023-06-22T10:09:22;12.23;;;8.07;;
56373;SDS011;58212;47.034;7.376;2023-06-22T10:11:51;12.32;;;9.68;;
56373;SDS011;58212;47.034;7.376;2023-06-22T10:14:18;14.52;;;8.35;;
56373;SDS011;58212;47.034;7.376;2023-06-22T10:16:48;14.38;;;9.27;;
56373;SDS011;58212;47.034;7.376;2023-06-22T10:19:14;14.32;;;9.43;;
56373;SDS011;58212;47.034;7.376;2023-06-22T10:21:41;14.13;;;8.50;;
56373;SDS011;58212;47.034;7.376;2023-06-22T10:24:08;14.73;;;9.07;;
56373;SDS011;58212;47.034;7.376;2023-06-22T10:26:35;13.43;;;8.23;;
56373;SDS011;58212;47.034;7.376;2023-06-22T10:29:04;11.90;;;8.40;;
56373;SDS011;58212;47.034;7.376;2023-06-22T10:31:32;12.73;;;8.05;;
56373;SDS011;58212;47.034;7.376;2023-06-22T10:33:59;13.73;;;9.93;;
56373;SDS011;58212;47.034;7.376;2023-06-22T10:36:26;15.35;;;9.60;;
56373;SDS011;58212;47.034;7.376;2023-06-22T10:38:53;13.70;;;10.07;;
56373;SDS011;58212;47.034;7.376;2023-06-22T10:41:20;12.30;;;9.93;;
56373;SDS011;58212;47.034;7.376;2023-06-22T10:43:47;13.57;;;10.57;;
56373;SDS011;58212;47.034;7.376;2023-06-22T10:46:15;16.05;;;10.45;;
56373;SDS011;58212;47.034;7.376;2023-06-22T10:48:43;13.82;;;9.93;;
56373;SDS011;58212;47.034;7.376;2023-06-22T10:51:09;12.77;;;10.20;;
56373;SDS011;58212;47.034;7.376;2023-06-22T10:53:37;13.00;;;10.88;;
56373;SDS011;58212;47.034;7.376;2023-06-22T10:56:04;13.13;;;10.60;;
56373;SDS011;58212;47.034;7.376;2023-06-22T10:58:31;16.45;;;11.88;;
56373;SDS011;58212;47.034;7.376;2023-06-22T11:00:59;15.23;;;12.30;;
56373;SDS011;58212;47.034;7.376;2023-06-22T11:03:27;27.58;;;12.13;;
56373;SDS011;58212;47.034;7.376;2023-06-22T11:05:54;15.15;;;11.98;;
56373;SDS011;58212;47.034;7.376;2023-06-22T11:08:20;19.02;;;12.25;;
56373;SDS011;58212;47.034;7.376;2023-06-22T11:10:48;14.35;;;11.98;;
56373;SDS011;58212;47.034;7.376;2023-06-22T11:13:14;17.60;;;12.23;;
56373;SDS011;58212;47.034;7.376;2023-06-22T11:15:42;14.80;;;13.13;;
56373;SDS011;58212;47.034;7.376;2023-06-22T11:18:09;14.68;;;12.93;;
56373;SDS011;58212;47.034;7.376;2023-06-22T11:20:37;18.13;;;13.68;;
56373;SDS011;58212;47.034;7.376;2023-06-22T11:23:07;18.00;;;14.98;;
56373;SDS011;58212;47.034;7.376;2023-06-22T11:25:38;17.30;;;13.80;;
56373;SDS011;58212;47.034;7.376;2023-06-22T11:28:07;16.05;;;14.35;;
56373;SDS011;58212;47.034;7.376;2023-06-22T11:30:34;17.17;;;13.57;;
56373;SDS011;58212;47.034;7.376;2023-06-22T11:33:01;20.52;;;13.65;;
56373;SDS011;58212;47.034;7.376;2023-06-22T11:35:28;18.00;;;14.25;;
56373;SDS011;58212;47.034;7.376;2023-06-22T11:37:56;19.45;;;14.85;;
56373;SDS011;58212;47.034;7.376;2023-06-22T11:40:24;21.10;;;14.55;;
56373;SDS011;58212;47.034;7.376;2023-06-22T11:42:51;19.02;;;14.77;;
56373;SDS011;58212;47.034;7.376;2023-06-22T11:45:19;19.38;;;14.73;;
56373;SDS011;58212;47.034;7.376;2023-06-22T11:47:45;17.73;;;13.55;;
56373;SDS011;58212;47.034;7.376;2023-06-22T11:50:13;18.65;;;14.10;;
56373;SDS011;58212;47.034;7.376;2023-06-22T11:52:40;13.50;;;10.95;;
56373;SDS011;58212;47.034;7.376;2023-06-22T11:55:08;16.95;;;10.50;;
56373;SDS011;58212;47.034;7.376;2023-06-22T11:57:36;16.40;;;10.93;;
56373;SDS011;58212;47.034;7.376;2023-06-22T12:00:04;15.73;;;9.32;;
56373;SDS011;58212;47.034;7.376;2023-06-22T12:02:43;11.52;;;9.27;;
56373;SDS011;58212;47.034;7.376;2023-06-22T12:05:10;14.52;;;9.73;;
56373;SDS011;58212;47.034;7.376;2023-06-22T12:07:37;13.63;;;9.85;;
56373;SDS011;58212;47.034;7.376;2023-06-22T12:10:04;11.88;;;8.32;;
56373;SDS011;58212;47.034;7.376;2023-06-22T12:12:37;15.77;;;8.38;;
56373;SDS011;58212;47.034;7.376;2023-06-22T12:15:06;14.90;;;7.78;;
56373;SDS011;58212;47.034;7.376;2023-06-22T12:17:34;11.77;;;7.30;;
56373;SDS011;58212;47.034;7.376;2023-06-22T12:20:01;13.25;;;7.57;;
56373;SDS011;58212;47.034;7.376;2023-06-22T12:22:30;9.35;;;5.80;;
56373;SDS011;58212;47.034;7.376;2023-06-22T12:24:57;11.65;;;6.20;;
56373;SDS011;58212;47.034;7.376;2023-06-22T12:27:24;12.63;;;5.32;;
56373;SDS011;58212;47.034;7.376;2023-06-22T12:29:54;9.20;;;4.80;;
56373;SDS011;58212;47.034;7.376;2023-06-22T12:32:21;10.88;;;5.43;;
56373;SDS011;58212;47.034;7.376;2023-06-22T12:34:48;8.70;;;4.45;;
56373;SDS011;58212;47.034;7.376;2023-06-22T12:37:15;11.32;;;5.40;;
56373;SDS011;58212;47.034;7.376;2023-06-22T12:39:42;7.32;;;4.95;;
56373;SDS011;58212;47.034;7.376;2023-06-22T12:42:09;11.13;;;5.00;;
56373;SDS011;58212;47.034;7.376;2023-06-22T12:44:37;8.55;;;4.68;;
56373;SDS011;58212;47.034;7.376;2023-06-22T12:47:08;12.70;;;5.30;;
56373;SDS011;58212;47.034;7.376;2023-06-22T12:49:37;6.55;;;4.18;;
56373;SDS011;58212;47.034;7.376;2023-06-22T12:52:08;8.07;;;4.78;;
56373;SDS011;58212;47.034;7.376;2023-06-22T12:54:37;8.60;;;4.90;;
56373;SDS011;58212;47.034;7.376;2023-06-22T12:57:08;12.20;;;5.03;;
56373;SDS011;58212;47.034;7.376;2023-06-22T12:59:34;10.05;;;5.00;;
56373;SDS011;58212;47.034;7.376;2023-06-22T13:02:01;9.02;;;4.45;;
56373;SDS011;58212;47.034;7.376;2023-06-22T13:04:30;9.70;;;4.97;;
56373;SDS011;58212;47.034;7.376;2023-06-22T13:06:57;13.93;;;5.22;;
56373;SDS011;58212;47.034;7.376;2023-06-22T13:09:24;11.43;;;4.65;;
56373;SDS011;58212;47.034;7.376;2023-06-22T13:11:51;12.10;;;5.20;;
56373;SDS011;58212;47.034;7.376;2023-06-22T13:14:18;8.00;;;5.45;;
56373;SDS011;58212;47.034;7.376;2023-06-22T13:16:46;10.65;;;5.13;;
56373;SDS011;58212;47.034;7.376;2023-06-22T13:19:16;12.32;;;5.57;;
56373;SDS011;58212;47.034;7.376;2023-06-22T13:21:45;10.50;;;5.10;;
56373;SDS011;58212;47.034;7.376;2023-06-22T13:24:12;15.52;;;5.13;;
56373;SDS011;58212;47.034;7.376;2023-06-22T13:26:39;13.43;;;5.22;;
56373;SDS011;58212;47.034;7.376;2023-06-22T13:29:06;7.75;;;4.88;;
56373;SDS011;58212;47.034;7.376;2023-06-22T13:31:33;11.23;;;4.78;;
56373;SDS011;58212;47.034;7.376;2023-06-22T13:34:01;13.77;;;5.57;;
56373;SDS011;58212;47.034;7.376;2023-06-22T13:36:28;12.20;;;5.20;;
56373;SDS011;58212;47.034;7.376;2023-06-22T13:38:57;13.55;;;5.88;;
56373;SDS011;58212;47.034;7.376;2023-06-22T13:41:24;13.50;;;5.68;;
56373;SDS011;58212;47.034;7.376;2023-06-22T13:43:51;13.13;;;5.20;;
56373;SDS011;58212;47.034;7.376;2023-06-22T13:46:20;12.13;;;5.53;;
56373;SDS011;58212;47.034;7.376;2023-06-22T13:49:12;9.68;;;5.25;;
56373;SDS011;58212;47.034;7.376;2023-06-22T13:52:05;9.02;;;5.60;;
56373;SDS011;58212;47.034;7.376;2023-06-22T13:54:37;9.48;;;5.70;;
56373;SDS011;58212;47.034;7.376;2023-06-22T13:57:05;10.10;;;5.45;;
56373;SDS011;58212;47.034;7.376;2023-06-22T13:59:32;13.20;;;5.72;;
56373;SDS011;58212;47.034;7.376;2023-06-22T14:01:59;11.20;;;5.20;;
56373;SDS011;58212;47.034;7.376;2023-06-22T14:04:26;10.80;;;5.47;;
56373;SDS011;58212;47.034;7.376;2023-06-22T14:07:19;11.75;;;5.90;;
56373;SDS011;58212;47.034;7.376;2023-06-22T14:09:47;9.50;;;5.55;;
56373;SDS011;58212;47.034;7.376;2023-06-22T14:12:15;9.60;;;5.35;;
56373;SDS011;58212;47.034;7.376;2023-06-22T14:14:43;10.98;;;5.72;;
56373;SDS011;58212;47.034;7.376;2023-06-22T14:17:10;10.90;;;5.40;;
56373;SDS011;58212;47.034;7.376;2023-06-22T14:19:36;7.15;;;4.82;;
56373;SDS011;58212;47.034;7.376;2023-06-22T14:22:03;13.82;;;5.18;;
56373;SDS011;58212;47.034;7.376;2023-06-22T14:24:31;10.80;;;5.43;;
56373;SDS011;58212;47.034;7.376;2023-06-22T14:26:59;9.82;;;5.47;;
56373;SDS011;58212;47.034;7.376;2023-06-22T14:29:28;10.70;;;4.88;;
56373;SDS011;58212;47.034;7.376;2023-06-22T14:31:55;11.02;;;4.45;;
56373;SDS011;58212;47.034;7.376;2023-06-22T14:34:23;8.75;;;5.13;;
56373;SDS011;58212;47.034;7.376;2023-06-22T14:36:50;8.60;;;5.43;;
56373;SDS011;58212;47.034;7.376;2023-06-22T14:39:17;8.75;;;4.75;;
56373;SDS011;58212;47.034;7.376;2023-06-22T14:41:44;8.13;;;4.93;;
56373;SDS011;58212;47.034;7.376;2023-06-22T14:44:12;9.75;;;5.15;;
56373;SDS011;58212;47.034;7.376;2023-06-22T14:46:40;7.18;;;3.92;;